Time;durP1;ratioP1;P1;durP2;ratioP2;P2;SDS_P1;SDS_P2;PMS_P1;PMS_P2;Temp;Humidity;BMP_temperature;BMP_pressure;BME280_temperature;BME280_humidity;BME280_pressure;Samples;Min_cycle;Max_cycle;Signal;HPM_P1;HPM_P2
2021/11/29 00:00:28;;;;;;;;;;;;;;;21.13;30.25;93791.66;1044417;28;1154;-64
2021/11/29 00:00:59;;;;;;;;;;;;;;;21.13;30.18;93796.91;1043433;28;1875;-65
2021/11/29 00:01:31;;;;;;;;;;;;;;;21.12;29.97;93795.38;1044567;28;1203;-64
2021/11/29 00:02:03;;;;;;;;;;;;;;;21.11;30.03;93794.63;1043776;28;1604;-64
2021/11/29 00:02:33;;;;;;;;;;;;;;;21.12;30.23;93795.38;1043157;28;2120;-64
2021/11/29 00:03:05;;;;;;;;;;;;;;;21.11;30.23;93794.63;1044262;28;1387;-64
2021/11/29 00:03:35;;;;;;;;;;;;;;;21.11;30.23;93799.88;1043956;28;1902;-65
2021/11/29 00:04:06;;;;;;;;;;;;;;;21.12;30.13;93798.03;1042901;28;1401;-64
2021/11/29 00:04:36;;;;;;;;;;;;;;;21.12;30.40;93795.38;1044261;28;1107;-65
2021/11/29 00:05:07;;;;;;;;;;;;;;;21.12;30.26;93800.66;1044044;28;1930;-65
2021/11/29 00:05:37;;;;;;;;;;;;;;;21.11;30.36;93799.88;1044793;28;994;-65
2021/11/29 00:06:08;;;;;;;;;;;;;;;21.12;30.04;93801.44;1043668;28;1062;-64
2021/11/29 00:06:38;;;;;;;;;;;;;;;21.12;30.52;93795.38;1044179;28;1130;-65
2021/11/29 00:07:08;;;;;;;;;;;;;;;21.12;30.33;93800.66;1044250;28;1101;-64
2021/11/29 00:07:39;;;;;;;;;;;;;;;21.13;30.08;93808.22;1042959;28;2151;-64
2021/11/29 00:08:09;;;;;;;;;;;;;;;21.12;30.02;93804.06;1044676;28;1152;-64
2021/11/29 00:08:39;;;;;;;;;;;;;;;21.13;30.51;93802.19;1044285;28;1368;-64
2021/11/29 00:09:10;;;;;;;;;;;;;;;21.12;30.29;93798.03;1043825;28;1318;-64
2021/11/29 00:09:40;;;;;;;;;;;;;;;21.12;30.26;93805.94;1040121;28;1221;-64
2021/11/29 00:10:10;;;;;;;;;;;;;;;21.12;30.57;93811.19;1036334;28;1156;-64
2021/11/29 00:10:41;;;;;;;;;;;;;;;21.12;30.22;93809.34;1037107;28;1112;-64
2021/11/29 00:11:12;;;;;;;;;;;;;;;21.12;30.39;93816.47;1035965;28;1073;-65
2021/11/29 00:11:42;;;;;;;;;;;;;;;21.12;30.44;93814.59;1040449;28;1062;-64
2021/11/29 00:12:13;;;;;;;;;;;;;;;21.12;30.46;93811.97;1043165;28;1878;-64
2021/11/29 00:12:43;;;;;;;;;;;;;;;21.12;30.39;93811.19;1043656;28;1580;-65
2021/11/29 00:13:13;;;;;;;;;;;;;;;21.11;30.19;93809.66;1044228;28;1032;-64
2021/11/29 00:13:44;;;;;;;;;;;;;;;21.12;30.35;93808.56;1044481;28;1077;-64
2021/11/29 00:14:14;;;;;;;;;;;;;;;21.11;30.08;93817.53;1042368;28;1210;-65
2021/11/29 00:14:44;;;;;;;;;;;;;;;21.12;29.96;93811.19;1044725;28;1085;-65
2021/11/29 00:15:15;;;;;;;;;;;;;;;21.11;30.12;93814.91;1043893;28;1202;-65
2021/11/29 00:15:45;;;;;;;;;;;;;;;21.12;30.36;93816.47;1044015;28;1024;-64
2021/11/29 00:16:15;;;;;;;;;;;;;;;21.12;30.17;93819.09;1043762;28;1331;-64
2021/11/29 00:16:46;;;;;;;;;;;;;;;21.11;30.32;93815.69;1043944;28;1358;-65
2021/11/29 00:17:16;;;;;;;;;;;;;;;21.11;30.30;93818.31;1041633;28;1832;-64
2021/11/29 00:17:46;;;;;;;;;;;;;;;21.11;30.15;93810.41;1044693;28;1833;-65
2021/11/29 00:18:16;;;;;;;;;;;;;;;21.12;30.13;93816.47;1044801;28;1155;-64
2021/11/29 00:18:47;;;;;;;;;;;;;;;21.10;30.16;93822.06;1044710;28;1097;-64
2021/11/29 00:19:17;;;;;;;;;;;;;;;21.10;30.23;93819.44;1044221;28;1079;-65
2021/11/29 00:19:47;;;;;;;;;;;;;;;21.10;30.18;93816.03;1044726;28;1053;-64
2021/11/29 00:20:18;;;;;;;;;;;;;;;21.11;30.39;93820.19;1044704;28;1119;-64
2021/11/29 00:20:48;;;;;;;;;;;;;;;21.11;30.26;93817.53;1044015;28;1120;-65
2021/11/29 00:21:18;;;;;;;;;;;;;;;21.10;30.13;93813.38;1044156;28;1213;-64
2021/11/29 00:21:49;;;;;;;;;;;;;;;21.10;29.88;93811.53;1044382;28;1104;-64
2021/11/29 00:22:19;;;;;;;;;;;;;;;21.10;29.83;93813.38;1044263;28;1818;-64
2021/11/29 00:22:49;;;;;;;;;;;;;;;21.10;30.13;93816.03;1040221;28;1423;-64
2021/11/29 00:23:20;;;;;;;;;;;;;;;21.10;30.21;93819.44;1031511;28;1985;-64
2021/11/29 00:23:50;;;;;;;;;;;;;;;21.10;30.19;93818.66;1032046;28;1085;-64
2021/11/29 00:24:20;;;;;;;;;;;;;;;21.11;30.26;93817.53;1031956;28;1204;-64
2021/11/29 00:24:51;;;;;;;;;;;;;;;21.10;30.09;93819.44;1038655;28;1446;-64
2021/11/29 00:25:21;;;;;;;;;;;;;;;21.08;30.03;93815.56;1044390;28;1165;-64
2021/11/29 00:25:52;;;;;;;;;;;;;;;21.10;30.18;93818.66;1043511;28;1056;-64
2021/11/29 00:26:23;;;;;;;;;;;;;;;21.09;30.03;93812.59;1042237;28;1367;-65
2021/11/29 00:26:53;;;;;;;;;;;;;;;21.08;30.08;93814.47;1041012;28;1828;-64
2021/11/29 00:27:24;;;;;;;;;;;;;;;21.09;29.88;93828.41;1043264;28;1923;-64
2021/11/29 00:27:54;;;;;;;;;;;;;;;21.07;29.88;93812.16;1042150;28;1100;-64
2021/11/29 00:28:25;;;;;;;;;;;;;;;21.08;29.94;93826.88;1048548;28;1049;-64
2021/11/29 00:28:55;;;;;;;;;;;;;;;21.06;29.79;93819.28;1044629;28;1115;-65
2021/11/29 00:29:25;;;;;;;;;;;;;;;21.08;30.13;93831.38;1043594;28;1182;-64
2021/11/29 00:29:56;;;;;;;;;;;;;;;21.08;30.06;93831.38;1043040;28;1327;-65
2021/11/29 00:30:26;;;;;;;;;;;;;;;21.06;30.11;93827.19;1044458;28;1150;-64
2021/11/29 00:30:56;;;;;;;;;;;;;;;21.06;29.98;93831.72;1043541;28;1122;-64
2021/11/29 00:31:26;;;;;;;;;;;;;;;21.06;29.96;93829.81;1044038;28;1151;-64
2021/11/29 00:31:57;;;;;;;;;;;;;;;21.06;30.06;93829.81;1042790;28;1826;-64
2021/11/29 00:32:27;;;;;;;;;;;;;;;21.05;30.11;93830.94;1043183;28;1859;-64
2021/11/29 00:32:57;;;;;;;;;;;;;;;21.04;29.77;93824.09;1044523;28;1069;-65
2021/11/29 00:33:28;;;;;;;;;;;;;;;21.06;30.14;93829.81;1043992;28;1139;-64
2021/11/29 00:33:58;;;;;;;;;;;;;;;21.05;30.12;93825.66;1044594;28;1038;-64
2021/11/29 00:34:28;;;;;;;;;;;;;;;21.06;30.04;93831.72;1044459;28;1318;-65
2021/11/29 00:34:59;;;;;;;;;;;;;;;21.05;29.78;93825.66;1043283;28;1398;-64
2021/11/29 00:35:29;;;;;;;;;;;;;;;21.05;30.00;93833.56;1044299;28;1102;-64
2021/11/29 00:35:59;;;;;;;;;;;;;;;21.05;30.07;93828.28;1042585;28;2029;-64
2021/11/29 00:36:30;;;;;;;;;;;;;;;21.05;29.85;93838.06;1040303;28;1321;-64
2021/11/29 00:37:00;;;;;;;;;;;;;;;21.06;29.93;93834.34;1043961;28;1084;-64
2021/11/29 00:37:30;;;;;;;;;;;;;;;21.05;30.04;93833.56;1042220;28;1788;-64
2021/11/29 00:38:01;;;;;;;;;;;;;;;21.06;30.21;93845.63;1042804;28;1073;-65
2021/11/29 00:38:31;;;;;;;;;;;;;;;21.05;30.12;93835.41;1044208;28;1395;-65
2021/11/29 00:39:01;;;;;;;;;;;;;;;21.05;29.99;93833.56;1044486;28;1131;-65
2021/11/29 00:39:32;;;;;;;;;;;;;;;21.04;29.89;93832.00;1044416;28;780;-64
2021/11/29 00:40:03;;;;;;;;;;;;;;;21.05;30.14;93832.78;1043777;28;1010;-65
2021/11/29 00:40:34;;;;;;;;;;;;;;;21.04;30.32;93837.28;1036949;28;1599;-65
2021/11/29 00:41:04;;;;;;;;;;;;;;;21.05;30.24;93841.47;1040201;28;1182;-65
2021/11/29 00:41:34;;;;;;;;;;;;;;;21.04;30.00;93833.91;1044278;28;1016;-64
2021/11/29 00:42:05;;;;;;;;;;;;;;;21.04;30.22;93842.53;1043945;28;1006;-64
2021/11/29 00:42:35;;;;;;;;;;;;;;;21.05;30.20;93843.31;1043606;28;1998;-64
2021/11/29 00:43:06;;;;;;;;;;;;;;;21.05;30.32;93843.31;1039897;28;1104;-64
2021/11/29 00:43:36;;;;;;;;;;;;;;;21.04;30.32;93837.28;1031426;28;1906;-64
2021/11/29 00:44:07;;;;;;;;;;;;;;;21.04;30.01;93834.66;1031099;28;1097;-65
2021/11/29 00:44:37;;;;;;;;;;;;;;;21.04;30.13;93837.28;1032309;28;726;-64
2021/11/29 00:45:07;;;;;;;;;;;;;;;21.05;29.95;93833.56;1036155;28;1082;-64
2021/11/29 00:45:38;;;;;;;;;;;;;;;21.05;30.04;93841.47;1039638;28;1411;-65
2021/11/29 00:46:08;;;;;;;;;;;;;;;21.04;29.92;93837.28;1035766;28;1130;-65
2021/11/29 00:46:38;;;;;;;;;;;;;;;21.05;30.00;93840.69;1035986;28;1259;-64
2021/11/29 00:47:09;;;;;;;;;;;;;;;21.05;30.07;93841.47;1035404;28;1354;-64
2021/11/29 00:47:39;;;;;;;;;;;;;;;21.04;30.07;93836.53;1035275;28;1857;-64
2021/11/29 00:48:09;;;;;;;;;;;;;;;21.03;29.83;93838.38;1039787;28;1383;-64
2021/11/29 00:48:40;;;;;;;;;;;;;;;21.03;30.19;93842.88;1044392;28;1085;-64
2021/11/29 00:49:11;;;;;;;;;;;;;;;21.02;29.94;93839.47;1044179;28;1147;-64
2021/11/29 00:49:41;;;;;;;;;;;;;;;21.03;30.01;93851.56;1044468;28;1044;-64
2021/11/29 00:50:13;;;;;;;;;;;;;;;21.03;29.78;93845.50;1044778;28;1205;-65
2021/11/29 00:50:43;;;;;;;;;;;;;;;21.02;29.66;93841.31;1043209;28;1383;-64
2021/11/29 00:51:13;;;;;;;;;;;;;;;21.02;29.78;93842.09;1043882;28;1202;-64
2021/11/29 00:51:44;;;;;;;;;;;;;;;21.02;30.13;93839.47;1044311;28;980;-64
2021/11/29 00:52:14;;;;;;;;;;;;;;;21.01;29.88;93843.19;1043991;28;1182;-64
2021/11/29 00:52:44;;;;;;;;;;;;;;;21.02;30.01;93839.47;1042243;28;1907;-64
2021/11/29 00:53:15;;;;;;;;;;;;;;;21.02;29.84;93842.09;1044115;28;1071;-65
2021/11/29 00:53:46;;;;;;;;;;;;;;;21.01;30.09;93847.66;1044064;28;1123;-64
2021/11/29 00:54:17;;;;;;;;;;;;;;;21.02;29.87;93843.94;1044064;28;1146;-64
2021/11/29 00:54:47;;;;;;;;;;;;;;;21.01;29.86;93839.75;1043087;28;1832;-64
2021/11/29 00:55:18;;;;;;;;;;;;;;;21.00;29.73;93846.88;1044457;28;1135;-64
2021/11/29 00:55:48;;;;;;;;;;;;;;;20.99;29.84;93840.09;1043225;28;1616;-64
2021/11/29 00:56:21;;;;;;;;;;;;;;;21.00;29.83;93838.97;1044261;28;1284;-64
2021/11/29 00:56:51;;;;;;;;;;;;;;;21.00;30.13;93841.63;1041940;28;1093;-65
2021/11/29 00:57:22;;;;;;;;;;;;;;;20.99;29.94;93837.47;1044635;28;1134;-64
2021/11/29 00:57:52;;;;;;;;;;;;;;;20.99;29.88;93848.00;1043824;28;2183;-64
2021/11/29 00:58:22;;;;;;;;;;;;;;;20.99;29.80;93842.72;1043689;28;1949;-64
2021/11/29 00:58:53;;;;;;;;;;;;;;;21.00;30.04;93846.88;1044334;28;1572;-64
2021/11/29 00:59:23;;;;;;;;;;;;;;;21.01;29.98;93842.41;1043748;28;1087;-64
2021/11/29 00:59:53;;;;;;;;;;;;;;;21.01;30.00;93848.44;1044413;28;1230;-64
2021/11/29 01:00:26;;;;;;;;;;;;;;;21.00;29.87;93841.63;1044651;28;1194;-65
2021/11/29 01:00:57;;;;;;;;;;;;;;;21.00;30.09;93852.16;1044312;28;1056;-65
2021/11/29 01:01:27;;;;;;;;;;;;;;;20.99;30.07;93845.34;1044575;28;1249;-64
2021/11/29 01:01:58;;;;;;;;;;;;;;;21.00;29.98;93846.09;1044097;28;1146;-64
2021/11/29 01:02:28;;;;;;;;;;;;;;;20.99;30.00;93850.63;1044375;28;1163;-64
2021/11/29 01:02:59;;;;;;;;;;;;;;;21.00;30.00;93846.88;1043414;28;2262;-65
2021/11/29 01:03:29;;;;;;;;;;;;;;;21.00;30.23;93846.09;1043888;28;1902;-65
2021/11/29 01:04:00;;;;;;;;;;;;;;;21.00;30.08;93854.78;1044704;28;1120;-65
2021/11/29 01:04:30;;;;;;;;;;;;;;;21.01;30.22;93851.06;1044294;28;984;-64
2021/11/29 01:05:00;;;;;;;;;;;;;;;21.00;30.04;93852.16;1043644;28;1415;-64
2021/11/29 01:05:32;;;;;;;;;;;;;;;21.01;30.14;93853.72;1044264;28;1151;-64
2021/11/29 01:06:02;;;;;;;;;;;;;;;21.01;30.07;93853.72;1037394;28;1558;-65
2021/11/29 01:06:33;;;;;;;;;;;;;;;21.01;30.37;93848.44;1039811;28;1296;-65
2021/11/29 01:07:03;;;;;;;;;;;;;;;21.01;30.09;93852.94;1043206;28;1097;-65
2021/11/29 01:07:33;;;;;;;;;;;;;;;21.02;30.09;93849.22;1044568;28;1202;-66
2021/11/29 01:08:04;;;;;;;;;;;;;;;21.01;29.90;93852.94;1043314;28;1852;-64
2021/11/29 01:08:34;;;;;;;;;;;;;;;21.02;30.26;93852.63;1044260;28;792;-65
2021/11/29 01:09:05;;;;;;;;;;;;;;;21.01;29.92;93850.31;1039941;28;1148;-64
2021/11/29 01:09:35;;;;;;;;;;;;;;;21.00;29.81;93856.66;1040312;28;1091;-64
2021/11/29 01:10:06;;;;;;;;;;;;;;;21.00;29.88;93854.78;1035581;28;1093;-65
2021/11/29 01:10:37;;;;;;;;;;;;;;;20.99;29.66;93855.91;1040114;28;1034;-65
2021/11/29 01:11:07;;;;;;;;;;;;;;;21.00;29.96;93860.06;1038784;28;2168;-65
2021/11/29 01:11:37;;;;;;;;;;;;;;;21.00;30.13;93857.41;1032443;28;1038;-66
2021/11/29 01:12:08;;;;;;;;;;;;;;;20.99;30.03;93855.13;1038964;28;1077;-64
2021/11/29 01:12:38;;;;;;;;;;;;;;;20.99;29.75;93863.78;1036843;28;1042;-64
2021/11/29 01:13:09;;;;;;;;;;;;;;;20.99;29.95;93866.44;1042960;28;1893;-65
2021/11/29 01:13:39;;;;;;;;;;;;;;;20.98;29.72;93851.69;1042763;28;1780;-64
2021/11/29 01:14:09;;;;;;;;;;;;;;;20.99;29.99;93855.91;1042697;28;1308;-65
2021/11/29 01:14:40;;;;;;;;;;;;;;;20.99;29.99;93855.13;1043081;28;1685;-64
2021/11/29 01:15:12;;;;;;;;;;;;;;;20.98;29.79;93854.34;1038582;28;1430;-65
2021/11/29 01:15:43;;;;;;;;;;;;;;;20.98;29.96;93854.34;1039687;28;1949;-64
2021/11/29 01:16:13;;;;;;;;;;;;;;;20.98;29.83;93858.81;1043890;28;1096;-65
2021/11/29 01:16:44;;;;;;;;;;;;;;;20.97;29.89;93852.81;1047479;28;1303;-65
2021/11/29 01:17:14;;;;;;;;;;;;;;;20.97;29.68;93852.81;1047361;28;1207;-64
2021/11/29 01:17:44;;;;;;;;;;;;;;;20.97;29.67;93852.03;1046902;28;1068;-65
2021/11/29 01:18:15;;;;;;;;;;;;;;;20.97;30.07;93855.44;1046237;28;1862;-64
2021/11/29 01:18:45;;;;;;;;;;;;;;;20.97;30.10;93852.81;1046692;28;1062;-64
2021/11/29 01:19:15;;;;;;;;;;;;;;;20.97;30.04;93855.44;1044872;28;1151;-65
2021/11/29 01:19:46;;;;;;;;;;;;;;;20.96;29.96;93851.25;1044690;28;1034;-65
2021/11/29 01:20:16;;;;;;;;;;;;;;;20.96;29.83;93855.75;1044830;28;1236;-65
2021/11/29 01:20:46;;;;;;;;;;;;;;;20.96;30.10;93851.25;1043666;28;1044;-65
2021/11/29 01:21:17;;;;;;;;;;;;;;;20.97;30.02;93865.19;1040080;28;1305;-65
2021/11/29 01:21:48;;;;;;;;;;;;;;;20.96;30.13;93851.25;1040140;28;1210;-65
2021/11/29 01:22:18;;;;;;;;;;;;;;;20.96;30.03;93855.75;1041055;28;1123;-63
2021/11/29 01:22:49;;;;;;;;;;;;;;;20.97;29.86;93857.31;1044122;28;1065;-64
2021/11/29 01:23:19;;;;;;;;;;;;;;;20.95;29.78;93852.38;1043166;28;1902;-64
2021/11/29 01:23:49;;;;;;;;;;;;;;;20.95;29.60;93855.00;1042289;28;1785;-64
2021/11/29 01:24:20;;;;;;;;;;;;;;;20.96;29.82;93856.53;1043989;28;1104;-64
2021/11/29 01:24:50;;;;;;;;;;;;;;;20.96;29.68;93861.00;1044401;28;1029;-64
2021/11/29 01:25:20;;;;;;;;;;;;;;;20.95;29.80;93860.25;1044527;28;1230;-64
2021/11/29 01:25:53;;;;;;;;;;;;;;;20.95;29.85;93855.00;1043648;28;1840;-63
2021/11/29 01:26:23;;;;;;;;;;;;;;;20.96;29.78;93861.78;1043345;28;1276;-63
2021/11/29 01:26:54;;;;;;;;;;;;;;;20.96;29.96;93861.78;1043982;28;1080;-64
2021/11/29 01:27:24;;;;;;;;;;;;;;;20.96;29.88;93855.75;1044173;28;1139;-64
2021/11/29 01:27:55;;;;;;;;;;;;;;;20.96;30.02;93855.75;1041412;28;1615;-63
2021/11/29 01:28:25;;;;;;;;;;;;;;;20.96;29.87;93859.16;1043285;28;1813;-64
2021/11/29 01:28:55;;;;;;;;;;;;;;;20.96;30.18;93858.38;1044134;28;1091;-64
2021/11/29 01:29:26;;;;;;;;;;;;;;;20.96;30.17;93855.75;1043776;28;1158;-64
2021/11/29 01:29:56;;;;;;;;;;;;;;;20.96;29.76;93856.53;1044344;28;1045;-64
2021/11/29 01:30:26;;;;;;;;;;;;;;;20.96;29.90;93861.78;1044392;28;1147;-64
2021/11/29 01:30:57;;;;;;;;;;;;;;;20.96;29.88;93859.16;1044280;28;1040;-64
2021/11/29 01:31:27;;;;;;;;;;;;;;;20.95;29.82;93860.25;1044381;28;1170;-64
2021/11/29 01:31:57;;;;;;;;;;;;;;;20.96;29.99;93858.38;1041917;28;1777;-63
2021/11/29 01:32:28;;;;;;;;;;;;;;;20.95;29.86;93855.00;1043521;28;2294;-64
2021/11/29 01:32:58;;;;;;;;;;;;;;;20.95;29.81;93859.47;1044573;28;1061;-63
2021/11/29 01:33:28;;;;;;;;;;;;;;;20.94;29.65;93856.06;1042719;28;1918;-64
2021/11/29 01:33:59;;;;;;;;;;;;;;;20.95;29.78;93857.63;1044049;28;1303;-64
2021/11/29 01:34:29;;;;;;;;;;;;;;;20.95;29.89;93860.25;1039913;28;1065;-64
2021/11/29 01:34:59;;;;;;;;;;;;;;;20.95;29.89;93855.00;1039899;28;1061;-64
2021/11/29 01:35:30;;;;;;;;;;;;;;;20.95;29.89;93856.84;1039835;28;1119;-64
2021/11/29 01:36:00;;;;;;;;;;;;;;;20.94;29.91;93858.72;1038973;28;1642;-64
2021/11/29 01:36:31;;;;;;;;;;;;;;;20.95;30.14;93857.63;1043848;28;1209;-64
2021/11/29 01:37:01;;;;;;;;;;;;;;;20.96;29.90;93856.53;1040092;28;1447;-64
2021/11/29 01:37:31;;;;;;;;;;;;;;;20.95;29.93;93857.63;1043970;28;1340;-64
2021/11/29 01:38:02;;;;;;;;;;;;;;;20.95;30.02;93856.84;1044132;28;1155;-64
2021/11/29 01:38:32;;;;;;;;;;;;;;;20.93;29.73;93857.19;1038948;28;1880;-63
2021/11/29 01:39:03;;;;;;;;;;;;;;;20.94;30.02;93853.44;1043006;28;1108;-64
2021/11/29 01:39:33;;;;;;;;;;;;;;;20.95;29.78;93856.84;1035919;28;1368;-64
2021/11/29 01:40:04;;;;;;;;;;;;;;;20.94;30.29;93853.44;1035824;28;1113;-64
2021/11/29 01:40:35;;;;;;;;;;;;;;;20.94;30.15;93856.06;1040060;28;1676;-64
2021/11/29 01:41:05;;;;;;;;;;;;;;;20.95;30.08;93854.22;1035693;28;1187;-64
2021/11/29 01:41:36;;;;;;;;;;;;;;;20.94;30.15;93853.44;1035804;28;1041;-63
2021/11/29 01:42:07;;;;;;;;;;;;;;;20.95;30.13;93854.22;1036013;28;1129;-64
2021/11/29 01:42:37;;;;;;;;;;;;;;;20.94;29.98;93853.44;1040264;28;780;-64
2021/11/29 01:43:11;;;;;;;;;;;;;;;20.94;30.07;93856.06;1044804;28;1076;-64
2021/11/29 01:43:42;;;;;;;;;;;;;;;20.93;29.96;93854.53;1038683;28;1970;-64
2021/11/29 01:44:12;;;;;;;;;;;;;;;20.94;30.05;93856.06;1039841;28;2298;-63
2021/11/29 01:44:43;;;;;;;;;;;;;;;20.94;30.00;93857.94;1034097;28;2289;-64
2021/11/29 01:45:16;;;;;;;;;;;;;;;20.94;29.98;93853.44;1039747;28;1553;-64
2021/11/29 01:45:47;;;;;;;;;;;;;;;20.94;30.00;93858.72;1041855;28;2209;-64
2021/11/29 01:46:18;;;;;;;;;;;;;;;20.93;30.05;93857.19;1044962;28;1339;-63
2021/11/29 01:46:48;;;;;;;;;;;;;;;20.93;29.84;93862.44;1045151;28;1155;-64
2021/11/29 01:47:21;;;;;;;;;;;;;;;20.94;30.01;93855.28;1045364;28;1241;-63
2021/11/29 01:47:52;;;;;;;;;;;;;;;20.93;29.95;93865.09;1040547;28;2060;-64
2021/11/29 01:48:22;;;;;;;;;;;;;;;20.93;30.15;93862.44;1039782;28;1840;-64
2021/11/29 01:48:53;;;;;;;;;;;;;;;20.94;29.91;93858.72;1036963;28;967;-63
2021/11/29 01:49:23;;;;;;;;;;;;;;;20.93;30.04;93865.09;1032542;28;1618;-63
2021/11/29 01:49:54;;;;;;;;;;;;;;;20.94;29.88;93863.97;1040612;28;1245;-64
2021/11/29 01:50:24;;;;;;;;;;;;;;;20.94;29.86;93863.97;1036795;28;1622;-64
2021/11/29 01:50:55;;;;;;;;;;;;;;;20.94;29.90;93861.34;1038640;28;2109;-64
2021/11/29 01:51:25;;;;;;;;;;;;;;;20.94;30.09;93863.19;1041060;28;1127;-64
2021/11/29 01:51:56;;;;;;;;;;;;;;;20.92;29.98;93866.16;1040746;28;1120;-64
2021/11/29 01:52:26;;;;;;;;;;;;;;;20.93;29.86;93867.72;1044710;28;1158;-64
2021/11/29 01:52:56;;;;;;;;;;;;;;;20.93;29.87;93867.72;1040608;28;1290;-64
2021/11/29 01:53:27;;;;;;;;;;;;;;;20.92;29.80;93865.38;1041990;28;2010;-63
2021/11/29 01:53:57;;;;;;;;;;;;;;;20.92;30.22;93863.53;1042416;28;2479;-64
2021/11/29 01:54:29;;;;;;;;;;;;;;;20.93;30.10;93867.72;1039921;28;1912;-64
2021/11/29 01:54:59;;;;;;;;;;;;;;;20.93;30.11;93861.66;1044897;28;1052;-63
2021/11/29 01:55:30;;;;;;;;;;;;;;;20.93;29.94;93872.19;1043643;28;1863;-63
2021/11/29 01:56:00;;;;;;;;;;;;;;;20.93;30.07;93870.34;1039530;28;1577;-64
2021/11/29 01:56:31;;;;;;;;;;;;;;;20.92;29.94;93876.69;1044642;28;1269;-63
2021/11/29 01:57:01;;;;;;;;;;;;;;;20.92;30.04;93870.66;1044844;28;1077;-64
2021/11/29 01:57:31;;;;;;;;;;;;;;;20.92;29.95;93871.44;1044580;28;1792;-63
2021/11/29 01:58:02;;;;;;;;;;;;;;;20.91;30.05;93875.16;1043862;28;1120;-64
2021/11/29 01:58:33;;;;;;;;;;;;;;;20.93;29.89;93865.09;1044522;28;2203;-63
2021/11/29 01:59:03;;;;;;;;;;;;;;;20.92;29.97;93870.66;1044523;28;1127;-64
2021/11/29 01:59:35;;;;;;;;;;;;;;;20.92;30.29;93871.44;1040269;28;1615;-64
2021/11/29 02:00:06;;;;;;;;;;;;;;;20.92;30.10;93871.44;1040545;28;1081;-64
2021/11/29 02:00:38;;;;;;;;;;;;;;;20.92;30.01;93871.44;1040578;28;761;-63
2021/11/29 02:01:11;;;;;;;;;;;;;;;20.93;30.00;93877.47;1040947;28;1092;-64
2021/11/29 02:01:41;;;;;;;;;;;;;;;20.92;29.83;93871.44;1044908;28;1286;-63
2021/11/29 02:02:12;;;;;;;;;;;;;;;20.92;29.97;93874.06;1041441;28;1988;-64
2021/11/29 02:02:42;;;;;;;;;;;;;;;20.91;29.96;93869.91;1041725;28;1016;-64
2021/11/29 02:03:13;;;;;;;;;;;;;;;20.91;29.88;93877.81;1044784;28;1111;-63
2021/11/29 02:03:44;;;;;;;;;;;;;;;20.92;29.77;93879.31;1043017;28;2012;-64
2021/11/29 02:04:14;;;;;;;;;;;;;;;20.92;30.06;93875.91;1044305;28;1398;-64
2021/11/29 02:04:45;;;;;;;;;;;;;;;20.92;30.12;93879.31;1041963;28;1081;-63
2021/11/29 02:05:16;;;;;;;;;;;;;;;20.92;30.05;93875.91;1044933;28;1151;-64
2021/11/29 02:05:46;;;;;;;;;;;;;;;20.92;30.09;93871.44;1043651;28;2184;-64
2021/11/29 02:06:17;;;;;;;;;;;;;;;20.91;29.80;93869.91;1043525;28;1592;-64
2021/11/29 02:06:47;;;;;;;;;;;;;;;20.92;29.78;93870.66;1043697;28;1907;-64
2021/11/29 02:07:22;;;;;;;;;;;;;;;20.92;30.04;93879.31;1040661;28;1183;-64
2021/11/29 02:07:57;;;;;;;;;;;;;;;20.91;29.89;93875.16;1039911;28;1222;-64
2021/11/29 02:08:32;;;;;;;;;;;;;;;20.92;29.97;93873.28;1037995;28;1051;-64
2021/11/29 02:09:06;;;;;;;;;;;;;;;20.92;29.92;93881.97;1041191;28;2196;-64
2021/11/29 02:09:57;;;;;;;;;;;;;;;20.91;30.23;93880.44;1046545;28;1148;-64
2021/11/29 02:10:40;;;;;;;;;;;;;;;20.91;29.85;93885.69;1041491;28;1881;-64
2021/11/29 02:11:23;;;;;;;;;;;;;;;20.91;30.06;93885.69;1039418;28;1056;-64
2021/11/29 02:11:54;;;;;;;;;;;;;;;20.90;29.89;93884.16;1040782;28;1037;-64
2021/11/29 02:12:24;;;;;;;;;;;;;;;20.90;29.79;93884.16;1038108;28;1111;-64
2021/11/29 02:12:55;;;;;;;;;;;;;;;20.90;29.97;93884.16;1040587;28;1304;-64
2021/11/29 02:13:25;;;;;;;;;;;;;;;20.90;30.00;93886.00;1044168;28;1016;-64
2021/11/29 02:14:15;;;;;;;;;;;;;;;20.90;29.92;93886.00;1039447;28;2063;-64
2021/11/29 02:14:56;;;;;;;;;;;;;;;20.90;29.84;93883.38;1040499;28;1459;-64
2021/11/29 02:15:26;;;;;;;;;;;;;;;20.89;29.76;93885.25;1040729;28;1320;-64
2021/11/29 02:15:58;;;;;;;;;;;;;;;20.89;29.58;93887.88;1044233;28;1106;-64
2021/11/29 02:16:29;;;;;;;;;;;;;;;20.89;29.62;93887.88;1044836;28;1439;-64
2021/11/29 02:16:59;;;;;;;;;;;;;;;20.88;29.83;93886.31;1044116;28;1942;-64
2021/11/29 02:17:29;;;;;;;;;;;;;;;20.87;29.84;93887.44;1043768;28;1452;-64
2021/11/29 02:18:00;;;;;;;;;;;;;;;20.88;29.71;93885.53;1044975;28;1081;-64
2021/11/29 02:18:32;;;;;;;;;;;;;;;20.88;29.76;93890.81;1040640;28;1231;-64
2021/11/29 02:19:02;;;;;;;;;;;;;;;20.88;29.81;93880.28;1031156;28;1819;-63
2021/11/29 02:19:39;;;;;;;;;;;;;;;20.87;30.10;93884.78;1033011;28;864;-64
2021/11/29 02:20:10;;;;;;;;;;;;;;;20.87;30.10;93884.78;1037020;28;1864;-63
2021/11/29 02:20:57;;;;;;;;;;;;;;;20.87;30.06;93889.28;1038967;28;1237;-63
2021/11/29 02:21:31;;;;;;;;;;;;;;;20.88;29.86;93896.84;1040711;28;1454;-64
2021/11/29 02:22:03;;;;;;;;;;;;;;;20.87;30.13;93887.44;1036358;28;1491;-64
2021/11/29 02:22:37;;;;;;;;;;;;;;;20.87;29.83;93886.66;1035353;28;1085;-64
2021/11/29 02:23:24;;;;;;;;;;;;;;;20.86;30.06;93888.50;1030786;28;1934;-64
2021/11/29 02:24:02;;;;;;;;;;;;;;;20.87;29.93;93890.06;1034297;28;1715;-63
2021/11/29 02:24:52;;;;;;;;;;;;;;;20.87;30.14;93890.06;1030037;28;1019;-63
2021/11/29 02:25:38;;;;;;;;;;;;;;;20.88;30.03;93891.59;1034895;28;1673;-64
2021/11/29 02:26:09;;;;;;;;;;;;;;;20.88;30.00;93893.44;1034173;28;1499;-64
2021/11/29 02:26:39;;;;;;;;;;;;;;;20.88;29.81;93894.22;1040791;28;1233;-64
2021/11/29 02:27:10;;;;;;;;;;;;;;;20.88;29.91;93896.84;1040518;28;925;-64
2021/11/29 02:27:41;;;;;;;;;;;;;;;20.87;30.07;93900.59;1032612;28;1709;-64
2021/11/29 02:28:11;;;;;;;;;;;;;;;20.86;29.87;93893.78;1043290;28;1734;-64
2021/11/29 02:28:43;;;;;;;;;;;;;;;20.86;30.06;93893.78;1044350;28;1039;-64
2021/11/29 02:29:14;;;;;;;;;;;;;;;20.86;29.72;93896.41;1042612;28;1870;-64
2021/11/29 02:29:45;;;;;;;;;;;;;;;20.86;29.87;93904.31;1043993;28;1250;-64
2021/11/29 02:30:16;;;;;;;;;;;;;;;20.87;29.86;93897.19;1040258;28;1123;-64
2021/11/29 02:31:07;;;;;;;;;;;;;;;20.86;29.86;93899.03;1040687;28;1183;-63
2021/11/29 02:31:58;;;;;;;;;;;;;;;20.87;29.94;93894.56;1041551;28;1971;-63
2021/11/29 02:32:30;;;;;;;;;;;;;;;20.86;29.98;93893.78;1044436;28;1715;-64
2021/11/29 02:33:00;;;;;;;;;;;;;;;20.85;29.77;93897.50;1044298;28;1206;-64
2021/11/29 02:33:30;;;;;;;;;;;;;;;20.86;29.83;93893.00;1043654;28;1178;-64
2021/11/29 02:34:20;;;;;;;;;;;;;;;20.86;29.72;93903.53;1039073;28;1899;-64
2021/11/29 02:34:51;;;;;;;;;;;;;;;20.86;29.91;93903.53;1042021;28;1042;-64
2021/11/29 02:35:21;;;;;;;;;;;;;;;20.86;30.06;93901.69;1044543;28;1151;-64
2021/11/29 02:35:52;;;;;;;;;;;;;;;20.87;30.20;93910.34;1042954;28;1804;-64
2021/11/29 02:36:22;;;;;;;;;;;;;;;20.87;30.21;93910.34;1043271;28;1876;-64
2021/11/29 02:36:55;;;;;;;;;;;;;;;20.87;29.78;93905.09;1043577;28;1843;-63
2021/11/29 02:37:25;;;;;;;;;;;;;;;20.85;29.77;93907.28;1043761;28;1654;-64
2021/11/29 02:37:56;;;;;;;;;;;;;;;20.86;29.58;93904.31;1042909;28;1034;-63
2021/11/29 02:38:26;;;;;;;;;;;;;;;20.85;29.77;93908.03;1044904;28;1154;-64
2021/11/29 02:38:56;;;;;;;;;;;;;;;20.86;29.96;93911.44;1043384;28;998;-64
2021/11/29 02:39:28;;;;;;;;;;;;;;;20.85;30.09;93904.63;1043654;28;1855;-64
2021/11/29 02:39:58;;;;;;;;;;;;;;;20.85;29.63;93908.03;1044473;28;1094;-64
2021/11/29 02:40:28;;;;;;;;;;;;;;;20.84;29.71;93906.50;1040591;28;1374;-64
2021/11/29 02:40:59;;;;;;;;;;;;;;;20.85;29.72;93909.91;1040080;28;1473;-64
2021/11/29 02:41:29;;;;;;;;;;;;;;;20.85;30.00;93909.91;1040705;28;1438;-64
2021/11/29 02:42:00;;;;;;;;;;;;;;;20.83;29.92;93912.84;1040330;28;1179;-64
2021/11/29 02:42:30;;;;;;;;;;;;;;;20.83;29.78;93910.22;1040449;28;1128;-64
2021/11/29 02:43:01;;;;;;;;;;;;;;;20.84;29.81;93911.75;1040622;28;1189;-63
2021/11/29 02:43:31;;;;;;;;;;;;;;;20.84;29.72;93911.75;1039926;28;1901;-64
2021/11/29 02:44:02;;;;;;;;;;;;;;;20.83;29.55;93912.09;1040448;28;1093;-64
2021/11/29 02:44:32;;;;;;;;;;;;;;;20.83;29.99;93914.72;1042564;28;2128;-64
2021/11/29 02:45:03;;;;;;;;;;;;;;;20.83;29.79;93909.44;1043725;28;1089;-64
2021/11/29 02:45:33;;;;;;;;;;;;;;;20.83;29.58;93912.84;1044915;28;1090;-64